createdAt,value
2023-01-26T00:01:21.760Z,108.70
2023-01-26T00:03:49.497Z,98.93
2023-01-26T00:06:18.422Z,107.60
2023-01-26T00:08:48.050Z,99.80
2023-01-26T00:11:18.486Z,102.03
2023-01-26T00:13:46.055Z,98.65
2023-01-26T00:16:15.108Z,104.20
2023-01-26T00:18:43.162Z,93.67
2023-01-26T00:21:17.887Z,102.32
2023-01-26T00:23:46.204Z,97.07
2023-01-26T00:26:16.242Z,95.60
2023-01-26T00:28:43.639Z,103.53
2023-01-26T00:31:14.764Z,95.43
2023-01-26T00:33:42.057Z,100.63
2023-01-26T00:36:11.405Z,96.82
2023-01-26T00:38:39.472Z,97.32
2023-01-26T00:41:10.015Z,108.22
2023-01-26T00:43:37.290Z,93.22
2023-01-26T00:46:04.737Z,104.55
2023-01-26T00:48:31.958Z,104.95
2023-01-26T00:51:01.098Z,103.18
2023-01-26T00:53:28.708Z,99.13
2023-01-26T00:55:58.089Z,97.38
2023-01-26T00:58:26.187Z,104.35
2023-01-26T01:00:53.766Z,103.38
2023-01-26T01:03:21.083Z,101.97
2023-01-26T01:05:48.455Z,100.95
2023-01-26T01:08:15.749Z,101.28
2023-01-26T01:10:43.072Z,102.05
2023-01-26T01:13:10.333Z,106.72
2023-01-26T01:15:40.448Z,101.32
2023-01-26T01:18:07.802Z,108.85
2023-01-26T01:20:35.055Z,101.25
2023-01-26T01:23:03.769Z,96.53
2023-01-26T01:25:31.070Z,98.72
2023-01-26T01:27:58.479Z,103.38
2023-01-26T01:30:25.776Z,99.95
2023-01-26T01:32:53.671Z,102.18
2023-01-26T01:35:20.928Z,102.15
2023-01-26T01:37:48.162Z,103.43
2023-01-26T01:40:15.575Z,103.78
2023-01-26T01:42:49.566Z,104.03
2023-01-26T01:45:25.940Z,98.07
2023-01-26T01:47:55.863Z,104.38
2023-01-26T01:50:24.492Z,110.50
2023-01-26T01:52:53.442Z,109.47
2023-01-26T01:55:20.742Z,103.60
2023-01-26T01:57:52.461Z,107.32
2023-01-26T02:00:22.522Z,112.75
2023-01-26T02:03:14.886Z,105.65
2023-01-26T02:05:45.102Z,112.07
2023-01-26T02:10:41.164Z,113.47
2023-01-26T02:13:08.798Z,116.03
2023-01-26T02:15:36.843Z,109.30
2023-01-26T02:18:05.225Z,106.50
2023-01-26T02:20:53.538Z,116.68
2023-01-26T02:23:45.750Z,112.93
2023-01-26T02:26:16.621Z,118.07
2023-01-26T02:28:45.352Z,120.75
2023-01-26T02:31:13.495Z,118.82
2023-01-26T02:33:41.436Z,118.88
2023-01-26T02:36:21.363Z,120.47
2023-01-26T02:41:39.183Z,117.68
2023-01-26T02:44:09.252Z,113.93
2023-01-26T02:46:37.035Z,122.75
2023-01-26T02:49:23.048Z,118.55
2023-01-26T02:51:50.454Z,114.47
2023-01-26T02:54:36.391Z,111.43
2023-01-26T02:57:04.739Z,121.22
2023-01-26T02:59:32.045Z,115.88
2023-01-26T03:01:59.452Z,110.15
2023-01-26T03:04:27.247Z,126.80
2023-01-26T03:06:54.539Z,111.28
2023-01-26T03:09:21.808Z,116.13
2023-01-26T03:11:49.286Z,112.93
2023-01-26T03:14:17.933Z,121.50
2023-01-26T03:16:45.328Z,118.93
2023-01-26T03:19:33.153Z,114.90
2023-01-26T03:22:23.653Z,117.18
2023-01-26T03:25:09.801Z,120.50
2023-01-26T03:27:46.187Z,115.55
2023-01-26T03:30:16.816Z,106.22
2023-01-26T03:32:46.120Z,105.30
2023-01-26T03:35:22.602Z,101.15
2023-01-26T03:37:54.781Z,102.85
2023-01-26T03:40:54.672Z,107.53
2023-01-26T03:43:40.665Z,106.80
2023-01-26T03:46:27.474Z,105.32
2023-01-26T03:49:13.474Z,103.80
2023-01-26T03:51:59.388Z,109.10
2023-01-26T03:54:45.345Z,107.28
2023-01-26T03:57:12.760Z,101.90
2023-01-26T03:59:40.387Z,106.57
2023-01-26T04:02:31.050Z,107.90
2023-01-26T04:05:17.896Z,105.18
2023-01-26T04:08:08.538Z,104.95
2023-01-26T04:10:35.913Z,107.93
2023-01-26T04:13:23.455Z,104.05
2023-01-26T04:16:15.789Z,103.78
2023-01-26T04:19:01.825Z,99.22
2023-01-26T04:21:31.781Z,108.10
2023-01-26T04:24:01.409Z,101.10
2023-01-26T04:26:37.009Z,97.43
2023-01-26T04:29:12.478Z,99.25
2023-01-26T04:31:41.499Z,96.93
2023-01-26T04:34:14.586Z,100.65
2023-01-26T04:36:42.870Z,102.75
2023-01-26T04:39:10.684Z,103.15
2023-01-26T04:41:42.423Z,93.35
2023-01-26T04:44:12.493Z,88.13
2023-01-26T04:46:40.069Z,89.78
2023-01-26T04:49:07.561Z,85.63
2023-01-26T04:51:36.123Z,86.68
2023-01-26T04:54:03.746Z,82.38
2023-01-26T04:56:34.821Z,86.35
2023-01-26T04:59:06.492Z,95.75
2023-01-26T05:01:34.769Z,104.20
2023-01-26T05:04:05.749Z,104.22
2023-01-26T05:06:34.124Z,112.07
2023-01-26T05:09:01.392Z,104.53
2023-01-26T05:11:30.476Z,104.00
2023-01-26T05:14:06.212Z,97.60
2023-01-26T05:16:44.563Z,102.35
2023-01-26T05:19:50.324Z,107.88
2023-01-26T05:22:30.944Z,106.25
2023-01-26T05:25:24.045Z,106.22
2023-01-26T05:28:02.972Z,115.32
2023-01-26T05:30:30.421Z,109.18
2023-01-26T05:33:02.674Z,105.68
2023-01-26T05:35:30.155Z,106.63
2023-01-26T05:37:57.501Z,107.63
2023-01-26T05:40:26.249Z,104.90
2023-01-26T05:42:54.048Z,112.28
2023-01-26T05:45:41.002Z,107.53
2023-01-26T05:48:09.353Z,105.53
2023-01-26T05:50:36.962Z,104.57
2023-01-26T05:53:15.168Z,105.30
2023-01-26T05:55:43.458Z,100.85
2023-01-26T05:58:11.275Z,102.53
2023-01-26T06:00:39.335Z,91.90
2023-01-26T06:03:12.004Z,100.80
2023-01-26T06:05:39.426Z,96.40
2023-01-26T06:08:14.671Z,92.15
2023-01-26T06:11:00.170Z,88.70
2023-01-26T06:13:42.451Z,90.03
2023-01-26T06:16:20.926Z,93.55
2023-01-26T06:18:52.450Z,94.18
2023-01-26T06:21:19.928Z,86.75
2023-01-26T06:23:47.267Z,95.22
2023-01-26T06:26:15.326Z,102.35
2023-01-26T06:28:42.969Z,95.35
2023-01-26T06:31:10.914Z,98.50
2023-01-26T06:33:39.724Z,99.53
2023-01-26T06:36:10.871Z,101.43
2023-01-26T06:38:39.418Z,91.43
2023-01-26T06:41:09.213Z,99.95
2023-01-26T06:43:36.620Z,97.57
2023-01-26T06:46:05.525Z,94.80
2023-01-26T06:48:35.112Z,92.80
2023-01-26T06:51:26.857Z,94.30
2023-01-26T06:53:57.615Z,91.35
2023-01-26T06:56:40.759Z,85.78
2023-01-26T06:59:26.167Z,87.03
2023-01-26T07:02:21.343Z,79.18
2023-01-26T07:04:49.659Z,80.78
2023-01-26T07:07:17.077Z,87.38
2023-01-26T07:09:44.503Z,76.90
2023-01-26T07:12:11.867Z,79.10
2023-01-26T07:14:39.417Z,84.63
2023-01-26T07:17:06.837Z,79.93
2023-01-26T07:19:34.220Z,77.18
2023-01-26T07:22:02.183Z,75.47
2023-01-26T07:24:29.698Z,78.72
2023-01-26T07:26:57.268Z,84.63
2023-01-26T07:29:24.550Z,82.20
2023-01-26T07:31:52.103Z,81.70
2023-01-26T07:34:19.551Z,77.05
2023-01-26T07:36:46.962Z,74.57
2023-01-26T07:39:14.330Z,80.13
2023-01-26T07:41:41.580Z,83.10
2023-01-26T07:44:39.530Z,75.75
2023-01-26T07:47:06.872Z,78.18
2023-01-26T07:49:34.141Z,77.60
2023-01-26T07:52:03.175Z,73.63
2023-01-26T07:54:31.817Z,77.35
2023-01-26T07:57:00.565Z,79.40
2023-01-26T07:59:27.980Z,82.57
2023-01-26T08:01:55.306Z,73.90
2023-01-26T08:04:23.043Z,78.60
2023-01-26T08:06:53.463Z,75.10
2023-01-26T08:09:21.084Z,76.78
2023-01-26T08:11:48.537Z,75.25
2023-01-26T08:14:16.205Z,81.47
2023-01-26T08:16:45.523Z,72.88
2023-01-26T08:19:12.988Z,79.28
2023-01-26T08:21:40.267Z,83.40
2023-01-26T08:24:07.717Z,80.25
2023-01-26T08:26:35.031Z,83.68
2023-01-26T08:29:02.327Z,84.45
2023-01-26T08:31:30.065Z,93.30
2023-01-26T08:33:57.339Z,84.32
2023-01-26T08:36:25.060Z,84.93
2023-01-26T08:38:52.632Z,89.35
2023-01-26T08:41:20.264Z,90.22
2023-01-26T08:43:53.039Z,83.65
2023-01-26T08:46:20.366Z,87.18
2023-01-26T08:48:47.637Z,88.28
2023-01-26T08:51:14.981Z,85.78
2023-01-26T08:53:42.368Z,93.22
2023-01-26T08:56:12.180Z,89.20
2023-01-26T08:58:40.220Z,92.78
2023-01-26T09:01:15.596Z,86.82
2023-01-26T09:03:43.427Z,98.15
2023-01-26T09:06:13.643Z,85.60
2023-01-26T09:08:40.984Z,94.65
2023-01-26T09:11:08.540Z,85.32
2023-01-26T09:13:37.245Z,79.70
2023-01-26T09:16:18.944Z,82.38
2023-01-26T09:18:52.511Z,86.40
2023-01-26T09:21:20.632Z,74.18
2023-01-26T09:23:48.062Z,59.95
2023-01-26T09:26:15.443Z,59.40
2023-01-26T09:28:42.657Z,55.80
2023-01-26T09:31:11.484Z,65.80
2023-01-26T09:33:38.798Z,70.03
2023-01-26T09:36:10.828Z,65.90
2023-01-26T09:38:38.893Z,62.92
2023-01-26T09:41:30.092Z,65.45
2023-01-26T09:44:05.010Z,68.45
2023-01-26T09:46:51.164Z,65.95
2023-01-26T09:49:29.471Z,58.53
2023-01-26T09:52:02.882Z,62.65
2023-01-26T09:54:50.144Z,68.25
2023-01-26T09:57:29.525Z,69.15
2023-01-26T10:00:17.628Z,71.75
2023-01-26T10:03:15.242Z,67.53
2023-01-26T10:06:21.649Z,72.28
2023-01-26T10:09:26.605Z,70.22
2023-01-26T10:12:00.954Z,83.13
2023-01-26T10:14:50.497Z,79.03
2023-01-26T10:17:26.174Z,78.57
2023-01-26T10:20:00.139Z,76.28
2023-01-26T10:22:40.542Z,81.07
2023-01-26T10:25:20.099Z,73.03
2023-01-26T10:27:47.545Z,66.93
2023-01-26T10:30:16.676Z,63.45
2023-01-26T10:32:46.287Z,62.53
2023-01-26T10:35:18.149Z,63.75
2023-01-26T10:37:45.906Z,62.03
2023-01-26T10:40:13.814Z,63.78
2023-01-26T10:42:41.533Z,68.15
2023-01-26T10:45:32.530Z,59.45
2023-01-26T10:48:19.254Z,61.42
2023-01-26T10:50:48.006Z,60.88
2023-01-26T10:53:25.085Z,65.50
2023-01-26T10:56:02.131Z,59.17
2023-01-26T10:58:57.250Z,70.40
2023-01-26T11:01:28.215Z,64.93
2023-01-26T11:04:10.307Z,65.75
2023-01-26T11:06:38.118Z,66.40
2023-01-26T11:09:19.000Z,72.60
2023-01-26T11:11:57.864Z,75.00
2023-01-26T11:14:25.434Z,67.80
2023-01-26T11:17:09.981Z,73.85
2023-01-26T11:19:56.928Z,64.03
2023-01-26T11:22:39.431Z,69.60
2023-01-26T11:25:26.771Z,62.75
2023-01-26T11:28:12.856Z,65.07
2023-01-26T11:30:49.602Z,61.55
2023-01-26T11:33:51.883Z,60.45
2023-01-26T11:36:31.948Z,68.72
2023-01-26T11:39:27.383Z,68.70
2023-01-26T11:42:10.401Z,77.68
2023-01-26T11:44:53.941Z,76.68
2023-01-26T11:47:42.747Z,76.18
2023-01-26T11:50:22.665Z,87.97
2023-01-26T11:53:17.412Z,83.10
2023-01-26T11:55:59.414Z,79.53
2023-01-26T11:59:13.050Z,76.38
2023-01-26T12:01:45.420Z,75.45
2023-01-26T12:04:21.546Z,64.63
2023-01-26T12:07:51.670Z,68.45
2023-01-26T12:10:43.829Z,65.32
2023-01-26T12:13:17.075Z,57.78
2023-01-26T12:15:49.199Z,46.03
2023-01-26T12:18:38.109Z,42.22
2023-01-26T12:21:13.076Z,41.58
2023-01-26T12:23:59.615Z,41.17
2023-01-26T12:26:31.317Z,49.88
2023-01-26T12:29:13.748Z,45.83
2023-01-26T12:31:44.552Z,53.03
2023-01-26T12:34:13.690Z,43.03
2023-01-26T12:37:04.385Z,45.40
2023-01-26T12:39:39.702Z,40.17
2023-01-26T12:42:16.304Z,44.80
2023-01-26T12:44:53.605Z,36.15
2023-01-26T12:47:27.143Z,42.38
2023-01-26T12:50:04.460Z,37.08
2023-01-26T12:52:38.091Z,35.97
2023-01-26T12:55:42.922Z,33.97
2023-01-26T12:58:18.678Z,33.20
2023-01-26T13:00:56.686Z,34.88
2023-01-26T13:03:26.550Z,28.25
2023-01-26T13:05:58.250Z,26.83
2023-01-26T13:08:31.655Z,26.30
2023-01-26T13:11:01.003Z,29.27
2023-01-26T13:13:30.565Z,32.97
2023-01-26T13:16:16.250Z,28.30
2023-01-26T13:18:51.484Z,30.02
2023-01-26T13:21:40.590Z,29.13
2023-01-26T13:24:16.871Z,30.40
2023-01-26T13:26:48.092Z,26.98
2023-01-26T13:29:24.616Z,25.70
2023-01-26T13:31:54.825Z,26.33
2023-01-26T13:34:32.675Z,24.00
2023-01-26T13:37:16.329Z,24.10
2023-01-26T13:39:47.714Z,24.10
2023-01-26T13:42:38.325Z,22.17
2023-01-26T13:45:22.309Z,20.33
2023-01-26T13:47:50.908Z,21.25
2023-01-26T13:50:40.441Z,21.00
2023-01-26T13:53:33.012Z,22.85
2023-01-26T13:56:03.223Z,19.58
2023-01-26T13:58:30.671Z,19.70
2023-01-26T14:01:12.117Z,20.05
2023-01-26T14:03:39.422Z,20.98
2023-01-26T14:06:15.320Z,24.20
2023-01-26T14:08:56.296Z,24.75
2023-01-26T14:11:25.570Z,22.13
2023-01-26T14:13:56.205Z,22.48
2023-01-26T14:16:33.641Z,23.25
2023-01-26T14:19:27.915Z,24.52
2023-01-26T14:21:57.853Z,26.85
2023-01-26T14:24:33.857Z,25.42
2023-01-26T14:27:02.434Z,23.10
2023-01-26T14:29:31.012Z,25.55
2023-01-26T14:31:59.822Z,32.83
2023-01-26T14:34:30.205Z,28.50
2023-01-26T14:37:27.570Z,28.17
2023-01-26T14:40:30.504Z,22.35
2023-01-26T14:42:58.231Z,21.02
2023-01-26T14:45:31.236Z,21.40
2023-01-26T14:48:05.009Z,19.52
2023-01-26T14:50:32.547Z,19.45
2023-01-26T14:53:01.858Z,22.17
2023-01-26T14:55:50.513Z,19.48
2023-01-26T14:58:28.380Z,17.60
2023-01-26T15:00:58.301Z,18.92
2023-01-26T15:06:14.265Z,19.30
2023-01-26T15:08:42.889Z,21.38
2023-01-26T15:11:28.989Z,20.52
2023-01-26T15:13:56.354Z,24.88
2023-01-26T15:16:25.339Z,20.63
2023-01-26T15:19:06.772Z,21.20
2023-01-26T15:21:39.983Z,22.13
2023-01-26T15:24:13.997Z,24.33
2023-01-26T15:26:44.628Z,26.15
2023-01-26T15:29:25.308Z,22.52
2023-01-26T15:31:56.024Z,24.15
2023-01-26T15:34:32.687Z,23.08
2023-01-26T15:37:01.001Z,21.85
2023-01-26T15:39:28.486Z,25.92
2023-01-26T15:42:21.987Z,26.92
2023-01-26T15:44:49.371Z,26.15
2023-01-26T15:47:16.708Z,26.27
2023-01-26T15:49:44.310Z,29.33
2023-01-26T15:52:15.411Z,27.25
2023-01-26T15:54:42.854Z,29.42
2023-01-26T15:57:11.601Z,26.30
2023-01-26T15:59:39.483Z,28.27
2023-01-26T16:02:14.846Z,29.92
2023-01-26T16:04:42.417Z,25.05
2023-01-26T16:07:15.383Z,25.10
2023-01-26T16:09:43.271Z,26.38
2023-01-26T16:12:31.194Z,28.48
2023-01-26T16:14:59.548Z,27.98
2023-01-26T16:17:26.931Z,33.58
2023-01-26T16:19:54.193Z,32.28
2023-01-26T16:22:21.479Z,31.08
2023-01-26T16:24:48.773Z,34.88
2023-01-26T16:27:16.048Z,33.50
2023-01-26T16:29:43.440Z,36.08
2023-01-26T16:32:28.332Z,38.42
2023-01-26T16:34:55.705Z,35.83
2023-01-26T16:37:22.985Z,39.92
2023-01-26T16:39:50.263Z,34.97
2023-01-26T16:42:19.196Z,39.40
2023-01-26T16:44:46.525Z,33.38
2023-01-26T16:47:13.744Z,39.25
2023-01-26T16:49:41.037Z,34.65
2023-01-26T16:52:09.077Z,47.30
2023-01-26T16:54:36.490Z,41.55
2023-01-26T16:57:03.830Z,33.03
2023-01-26T16:59:31.042Z,36.80
2023-01-26T17:01:58.361Z,39.88
2023-01-26T17:04:25.799Z,34.90
2023-01-26T17:06:53.085Z,38.72
2023-01-26T17:09:21.237Z,37.90
2023-01-26T17:11:48.590Z,37.53
2023-01-26T17:14:16.252Z,42.38
2023-01-26T17:16:43.997Z,34.95
2023-01-26T17:19:11.512Z,34.95
2023-01-26T17:21:38.793Z,27.13
2023-01-26T17:24:07.192Z,30.92
2023-01-26T17:26:34.505Z,30.98
2023-01-26T17:29:01.995Z,27.40
2023-01-26T17:31:30.270Z,21.85
2023-01-26T17:33:57.692Z,26.80
2023-01-26T17:36:25.437Z,28.95
2023-01-26T17:38:53.118Z,29.95
2023-01-26T17:41:20.475Z,29.77
2023-01-26T17:43:51.527Z,22.40
2023-01-26T17:46:20.144Z,24.00
2023-01-26T17:48:48.398Z,20.42
2023-01-26T17:51:18.320Z,20.88
2023-01-26T17:53:47.162Z,20.02
2023-01-26T17:56:16.036Z,16.27
2023-01-26T17:58:47.304Z,18.40
2023-01-26T18:01:14.760Z,22.38
2023-01-26T18:03:42.697Z,18.33
2023-01-26T18:06:10.470Z,19.75
2023-01-26T18:08:38.772Z,15.63
2023-01-26T18:11:08.390Z,17.33
2023-01-26T18:13:35.835Z,20.95
2023-01-26T18:16:05.649Z,16.20
2023-01-26T18:18:33.067Z,15.73
2023-01-26T18:21:22.770Z,16.85
2023-01-26T18:23:51.891Z,14.93
2023-01-26T18:26:22.968Z,18.10
2023-01-26T18:28:50.652Z,16.95
2023-01-26T18:31:27.075Z,16.55
2023-01-26T18:33:55.854Z,21.25
2023-01-26T18:36:23.213Z,16.80
2023-01-26T18:38:55.543Z,15.57
2023-01-26T18:41:24.279Z,17.77
2023-01-26T18:43:53.066Z,14.13
2023-01-26T18:46:21.876Z,20.77
2023-01-26T18:48:49.550Z,15.95
2023-01-26T18:51:18.207Z,18.00
2023-01-26T18:53:45.503Z,17.50
2023-01-26T18:56:15.126Z,16.25
2023-01-26T18:58:43.329Z,23.10
2023-01-26T19:01:14.381Z,27.15
2023-01-26T19:03:47.248Z,20.55
2023-01-26T19:06:19.755Z,21.20
2023-01-26T19:08:49.043Z,20.85
2023-01-26T19:11:16.384Z,21.55
2023-01-26T19:13:45.976Z,21.33
2023-01-26T19:16:13.228Z,26.35
2023-01-26T19:18:40.443Z,21.52
2023-01-26T19:21:07.794Z,26.73
2023-01-26T19:23:36.960Z,25.25
2023-01-26T19:26:14.255Z,24.30
2023-01-26T19:28:42.092Z,26.73
2023-01-26T19:31:10.732Z,27.40
2023-01-26T19:33:38.354Z,23.83
2023-01-26T19:36:06.994Z,23.40
2023-01-26T19:38:36.895Z,21.42
2023-01-26T19:41:04.244Z,22.70
2023-01-26T19:43:31.536Z,23.48
2023-01-26T19:45:58.963Z,22.95
2023-01-26T19:48:27.615Z,25.85
2023-01-26T19:51:00.779Z,22.73
2023-01-26T19:53:28.268Z,25.95
2023-01-26T19:55:55.834Z,31.27
2023-01-26T19:58:23.185Z,28.02
2023-01-26T20:00:50.990Z,26.25
2023-01-26T20:03:18.918Z,30.55
2023-01-26T20:05:46.178Z,27.60
2023-01-26T20:08:13.459Z,23.40
2023-01-26T20:10:40.882Z,22.17
2023-01-26T20:13:08.160Z,26.05
2023-01-26T20:15:37.259Z,26.20
2023-01-26T20:18:04.804Z,28.00
2023-01-26T20:20:32.063Z,24.85
2023-01-26T20:23:00.031Z,25.27
2023-01-26T20:25:27.426Z,28.63
2023-01-26T20:27:54.897Z,27.73
2023-01-26T20:30:22.333Z,27.92
2023-01-26T20:32:52.763Z,32.90
2023-01-26T20:35:20.127Z,24.65
2023-01-26T20:37:47.519Z,29.00
2023-01-26T20:40:15.203Z,28.38
2023-01-26T20:42:42.638Z,31.15
2023-01-26T20:45:10.310Z,33.95
2023-01-26T20:47:39.259Z,25.25
2023-01-26T20:50:11.799Z,31.80
2023-01-26T20:52:41.235Z,28.65
2023-01-26T20:55:11.744Z,23.98
2023-01-26T20:57:39.066Z,40.17
2023-01-26T21:00:07.309Z,30.45
2023-01-26T21:02:34.754Z,22.85
2023-01-26T21:05:02.196Z,35.33
2023-01-26T21:07:29.474Z,27.52
2023-01-26T21:09:56.792Z,26.52
2023-01-26T21:12:24.110Z,26.70
2023-01-26T21:14:51.553Z,23.75
2023-01-26T21:17:22.489Z,26.88
2023-01-26T21:19:50.025Z,31.10
2023-01-26T21:22:17.867Z,25.35
2023-01-26T21:24:45.173Z,22.02
2023-01-26T21:27:12.556Z,23.90
2023-01-26T21:29:42.766Z,19.95
2023-01-26T21:32:10.612Z,27.88
2023-01-26T21:34:38.067Z,21.25
2023-01-26T21:37:06.456Z,19.77
2023-01-26T21:39:33.677Z,23.92
2023-01-26T21:42:01.024Z,24.98
2023-01-26T21:44:30.401Z,22.38
2023-01-26T21:47:00.248Z,13.55
2023-01-26T21:49:28.573Z,18.10
2023-01-26T21:52:15.298Z,20.33
2023-01-26T21:54:42.629Z,19.75
2023-01-26T21:57:30.497Z,12.60
2023-01-26T21:59:57.846Z,17.35
2023-01-26T22:02:25.111Z,17.48
2023-01-26T22:04:52.614Z,18.95
2023-01-26T22:07:19.909Z,20.45
2023-01-26T22:09:47.472Z,19.35
2023-01-26T22:12:14.722Z,17.92
2023-01-26T22:14:42.152Z,14.02
2023-01-26T22:17:09.380Z,17.65
2023-01-26T22:19:36.681Z,17.63
2023-01-26T22:22:04.975Z,17.77
2023-01-26T22:24:32.519Z,22.63
2023-01-26T22:26:59.916Z,18.55
2023-01-26T22:29:27.303Z,15.55
2023-01-26T22:31:54.649Z,17.70
2023-01-26T22:34:21.928Z,11.25
2023-01-26T22:36:49.232Z,15.70
2023-01-26T22:39:16.957Z,14.98
2023-01-26T22:41:44.203Z,15.70
2023-01-26T22:44:11.657Z,14.70
2023-01-26T22:46:39.144Z,16.35
2023-01-26T22:49:06.390Z,18.88
2023-01-26T22:51:37.233Z,18.65
2023-01-26T22:54:06.802Z,18.58
2023-01-26T22:56:34.521Z,18.98
2023-01-26T22:59:02.194Z,14.55
2023-01-26T23:01:31.605Z,14.43
2023-01-26T23:04:00.252Z,13.27
2023-01-26T23:06:28.305Z,15.13
2023-01-26T23:08:55.884Z,12.90
2023-01-26T23:11:26.097Z,15.10
2023-01-26T23:13:55.007Z,18.40
2023-01-26T23:16:23.747Z,16.00
2023-01-26T23:18:52.690Z,16.65
2023-01-26T23:21:20.580Z,14.27
2023-01-26T23:23:47.915Z,15.57
2023-01-26T23:26:15.256Z,10.85
2023-01-26T23:28:43.696Z,13.20
2023-01-26T23:31:12.570Z,15.07
2023-01-26T23:33:40.407Z,12.77
2023-01-26T23:36:08.642Z,16.02
2023-01-26T23:38:36.154Z,11.63
2023-01-26T23:41:05.458Z,18.40
2023-01-26T23:43:32.924Z,15.60
2023-01-26T23:46:00.328Z,15.15
2023-01-26T23:48:27.790Z,12.18
2023-01-26T23:50:56.771Z,11.50
2023-01-26T23:53:24.259Z,12.25
2023-01-26T23:55:51.788Z,12.65
2023-01-26T23:58:19.454Z,10.65
